Time;durP1;ratioP1;P1;durP2;ratioP2;P2;SDS_P1;SDS_P2;PMS_P1;PMS_P2;Temp;Humidity;BMP_temperature;BMP_pressure;BME280_temperature;BME280_humidity;BME280_pressure;Samples;Min_cycle;Max_cycle;Signal;HPM_P1;HPM_P2
2022/12/01 00:01:23;;;;;;;150.50;49.20;;;7.10;99.90;;;;;;5015160;28;20041;-73
2022/12/01 00:03:50;;;;;;;137.40;46.95;;;7.10;99.90;;;;;;5013950;28;20046;-73
2022/12/01 00:06:20;;;;;;;135.85;45.55;;;7.20;99.90;;;;;;5014850;28;20046;-74
2022/12/01 00:11:39;;;;;;;116.95;42.92;;;7.20;99.90;;;;;;5014346;28;20477;-73
2022/12/01 00:14:07;;;;;;;127.15;45.22;;;7.20;99.90;;;;;;5014789;28;20038;-73
2022/12/01 00:16:34;;;;;;;128.70;44.47;;;7.20;99.90;;;;;;5013694;28;20075;-73
2022/12/01 00:19:02;;;;;;;111.57;41.30;;;7.20;99.90;;;;;;5014808;28;20050;-74
2022/12/01 00:21:29;;;;;;;111.80;41.22;;;7.30;99.90;;;;;;5014996;28;20046;-72
2022/12/01 00:23:57;;;;;;;118.97;43.28;;;7.60;99.90;;;;;;5013716;28;20384;-73
2022/12/01 00:26:26;;;;;;;127.85;43.22;;;7.40;99.90;;;;;;5015066;28;20049;-73
2022/12/01 00:28:56;;;;;;;116.40;42.38;;;7.30;99.90;;;;;;5014980;28;20041;-73
2022/12/01 00:31:25;;;;;;;125.75;43.05;;;8.10;99.90;;;;;;5000660;28;20045;-72
2022/12/01 00:33:53;;;;;;;105.90;40.13;;;7.30;99.90;;;;;;5018490;28;20050;-73
2022/12/01 00:36:22;;;;;;;116.30;42.15;;;7.30;99.90;;;;;;5017738;28;20061;-73
2022/12/01 00:38:56;;;;;;;;;;;8.50;99.90;;;;;;5018831;28;20377;-73
2022/12/01 00:41:24;;;;;;;113.10;40.28;;;7.30;99.90;;;;;;5018877;28;19940;-73
2022/12/01 00:43:52;;;;;;;116.45;41.97;;;7.30;99.90;;;;;;5017422;28;20050;-73
2022/12/01 00:46:19;;;;;;;123.32;42.33;;;8.30;99.90;;;;;;5018280;28;20354;-73
2022/12/01 00:48:48;;;;;;;130.65;41.15;;;7.30;99.90;;;;;;5018694;28;20076;-73
2022/12/01 00:51:16;;;;;;;117.82;42.72;;;7.20;99.90;;;;;;5017024;28;20057;-73
2022/12/01 00:53:43;;;;;;;118.90;40.50;;;7.30;99.90;;;;;;5018205;28;20045;-73
2022/12/01 00:56:11;;;;;;;123.03;42.10;;;7.60;99.90;;;;;;5017342;28;20046;-73
2022/12/01 00:58:38;;;;;;;118.20;39.58;;;7.30;99.90;;;;;;5017924;28;20038;-73
2022/12/01 01:01:06;;;;;;;127.40;41.70;;;7.30;99.90;;;;;;5017975;28;20457;-73
2022/12/01 01:03:33;;;;;;;113.22;39.53;;;7.20;99.90;;;;;;5017321;28;20046;-73
2022/12/01 01:06:06;;;;;;;125.10;42.28;;;7.20;99.90;;;;;;5018048;28;20046;-73
2022/12/01 01:08:34;;;;;;;136.13;40.78;;;7.20;99.90;;;;;;5018231;28;20046;-73
2022/12/01 01:11:03;;;;;;;131.43;39.53;;;8.70;99.90;;;;;;5015808;28;20045;-73
2022/12/01 01:13:31;;;;;;;136.73;40.47;;;7.00;99.90;;;;;;5016794;28;20420;-73
2022/12/01 01:16:20;;;;;;;137.35;42.72;;;8.30;99.90;;;;;;5016452;28;20042;-73
2022/12/01 01:18:48;;;;;;;140.85;40.85;;;6.90;99.90;;;;;;5016894;28;20045;-73
2022/12/01 01:21:19;;;;;;;143.38;43.95;;;6.90;99.90;;;;;;5017586;28;20038;-73
2022/12/01 01:23:48;;;;;;;159.15;43.38;;;6.90;99.90;;;;;;5016369;28;20061;-73
2022/12/01 01:26:21;;;;;;;164.38;43.50;;;6.90;99.90;;;;;;5018076;28;20053;-73
2022/12/01 01:28:49;;;;;;;140.85;44.55;;;6.80;99.90;;;;;;5017471;28;20042;-73
2022/12/01 01:31:20;;;;;;;143.45;43.00;;;6.80;99.90;;;;;;5016508;28;20046;-73
2022/12/01 01:33:49;;;;;;;132.80;42.85;;;6.80;99.90;;;;;;5017475;28;20053;-73
2022/12/01 01:36:17;;;;;;;142.45;42.75;;;6.70;99.90;;;;;;5016258;28;20369;-73
2022/12/01 01:38:46;;;;;;;139.75;40.92;;;6.70;99.90;;;;;;5017277;28;20046;-72
2022/12/01 01:41:13;;;;;;;168.80;42.47;;;6.60;99.90;;;;;;5016294;28;20472;-73
2022/12/01 01:43:54;;;;;;;139.45;41.55;;;6.60;99.90;;;;;;4999251;28;20054;-73
2022/12/01 01:46:28;;;;;;;136.70;41.17;;;6.50;99.90;;;;;;5017390;28;20046;-73
2022/12/01 01:49:10;;;;;;;168.77;41.17;;;6.50;99.90;;;;;;5017545;28;20361;-73
2022/12/01 01:51:51;;;;;;;148.40;41.38;;;6.40;99.90;;;;;;5016075;28;20046;-73
2022/12/01 01:54:30;;;;;;;174.93;42.90;;;6.40;99.90;;;;;;5017175;28;20373;-73
2022/12/01 01:56:59;;;;;;;171.13;43.95;;;7.70;99.90;;;;;;5015820;28;20053;-73
2022/12/01 01:59:30;;;;;;;154.75;44.00;;;8.40;99.90;;;;;;5016888;28;20054;-73
2022/12/01 02:02:08;;;;;;;175.65;43.95;;;8.30;99.90;;;;;;5000030;28;20381;-73
2022/12/01 02:04:49;;;;;;;183.32;48.13;;;6.60;99.90;;;;;;5016015;28;20042;-72
2022/12/01 02:07:17;;;;;;;185.60;47.03;;;6.30;99.90;;;;;;5016814;28;20049;-73
2022/12/01 02:09:45;;;;;;;161.30;46.92;;;6.30;99.90;;;;;;5015561;28;20053;-73
2022/12/01 02:12:25;;;;;;;171.98;43.40;;;6.40;99.90;;;;;;5017009;28;20053;-73
2022/12/01 02:15:05;;;;;;;168.90;45.63;;;6.40;99.90;;;;;;5016528;28;20507;-73
2022/12/01 02:17:38;;;;;;;167.05;44.83;;;6.40;99.90;;;;;;5015453;28;20046;-72
2022/12/01 02:20:37;;;;;;;161.07;43.75;;;6.40;99.90;;;;;;5016466;28;20041;-73
2022/12/01 02:23:04;;;;;;;152.23;43.72;;;6.50;99.90;;;;;;5015706;28;20065;-72
2022/12/01 02:25:40;;;;;;;169.50;42.13;;;6.40;99.90;;;;;;4999443;28;20046;-73
2022/12/01 02:28:36;;;;;;;165.82;42.47;;;6.50;99.90;;;;;;5016391;28;20057;-72
2022/12/01 02:31:36;;;;;;;139.95;39.35;;;6.40;99.90;;;;;;5015261;28;20056;-72
2022/12/01 02:34:12;;;;;;;153.10;37.88;;;6.40;99.90;;;;;;5016469;28;20058;-73
2022/12/01 02:36:53;;;;;;;152.00;38.85;;;6.30;99.90;;;;;;5015126;28;20042;-73
2022/12/01 02:39:30;;;;;;;148.05;38.35;;;6.30;99.90;;;;;;5016365;28;20045;-73
2022/12/01 02:42:47;;;;;;;154.43;38.85;;;6.20;99.90;;;;;;5016474;28;20369;-72
2022/12/01 02:45:04;;;;;;;171.65;38.67;;;6.20;99.90;;;;;;5015848;28;20042;-72
2022/12/01 02:47:33;;;;;;;170.18;37.78;;;6.10;99.90;;;;;;4999339;28;20061;-73
2022/12/01 02:50:01;;;;;;;188.73;39.83;;;6.10;99.90;;;;;;4998133;28;20053;-73
2022/12/01 02:52:29;;;;;;;159.20;40.78;;;6.10;99.90;;;;;;5015843;28;20038;-72
2022/12/01 02:54:56;;;;;;;150.02;41.78;;;6.00;99.90;;;;;;4982640;28;20384;-73
2022/12/01 02:57:24;;;;;;;160.68;42.95;;;6.00;99.90;;;;;;5014691;28;20050;-72
2022/12/01 02:59:54;;;;;;;145.75;42.00;;;6.70;99.90;;;;;;5015936;28;20480;-73
2022/12/01 03:02:43;;;;;;;167.93;43.78;;;6.10;99.90;;;;;;5015692;28;20045;-73
2022/12/01 03:05:25;;;;;;;145.50;42.25;;;6.10;99.90;;;;;;5015695;28;20366;-72
2022/12/01 03:08:05;;;;;;;150.90;43.75;;;6.10;99.90;;;;;;5015828;28;20050;-73
2022/12/01 03:10:54;;;;;;;150.38;43.95;;;6.20;99.90;;;;;;5014696;28;20373;-73
2022/12/01 03:13:34;;;;;;;148.93;41.45;;;6.20;99.90;;;;;;5015746;28;20042;-73
2022/12/01 03:16:26;;;;;;;176.75;40.90;;;6.20;99.90;;;;;;4997104;28;20061;-73
2022/12/01 03:19:05;;;;;;;160.20;41.22;;;6.20;99.90;;;;;;5015877;28;20360;-73
2022/12/01 03:21:50;;;;;;;174.73;43.05;;;6.30;99.90;;;;;;5015403;28;20088;-73
2022/12/01 03:24:22;;;;;;;165.00;41.35;;;6.30;99.90;;;;;;4997262;28;20056;-72
2022/12/01 03:26:55;;;;;;;149.77;39.92;;;6.40;99.90;;;;;;5015272;28;20053;-73
2022/12/01 03:29:37;;;;;;;131.15;40.35;;;6.40;99.90;;;;;;5014769;28;20057;-72
2022/12/01 03:32:14;;;;;;;147.82;40.15;;;6.30;99.90;;;;;;5015431;28;20054;-74
2022/12/01 03:34:55;;;;;;;154.77;38.40;;;6.40;99.90;;;;;;5015396;28;20042;-73
2022/12/01 03:37:49;;;;;;;147.02;40.13;;;6.40;99.90;;;;;;5014126;28;20291;-72
2022/12/01 03:40:20;;;;;;;143.88;38.15;;;6.40;99.90;;;;;;5016744;28;20049;-74
2022/12/01 03:43:06;;;;;;;139.95;39.53;;;6.40;99.90;;;;;;5034028;28;20053;-73
2022/12/01 03:45:47;;;;;;;160.10;39.78;;;6.40;99.90;;;;;;5034927;28;20052;-73
2022/12/01 03:48:16;;;;;;;120.35;36.13;;;6.40;99.90;;;;;;5034193;28;20056;-72
2022/12/01 03:51:13;;;;;;;135.10;39.33;;;6.40;99.90;;;;;;5033845;28;20045;-73
2022/12/01 03:53:50;;;;;;;120.70;37.40;;;7.50;99.90;;;;;;5026437;28;20457;-73
2022/12/01 03:56:21;;;;;;;125.55;36.75;;;6.50;99.90;;;;;;5033922;28;20049;-72
2022/12/01 03:58:51;;;;;;;157.88;39.15;;;7.20;99.90;;;;;;5034847;28;20352;-74
2022/12/01 04:01:21;;;;;;;128.65;37.15;;;7.10;99.90;;;;;;5034892;28;20046;-73
2022/12/01 04:03:48;;;;;;;139.15;35.28;;;6.50;99.90;;;;;;5032455;28;20044;-73
2022/12/01 04:06:16;;;;;;;150.38;37.45;;;6.50;99.90;;;;;;5034572;28;20407;-73
2022/12/01 04:08:43;;;;;;;120.88;36.15;;;6.50;99.90;;;;;;5034477;28;20046;-73
2022/12/01 04:13:59;;;;;;;;;;;6.50;99.90;;;;;;5035019;28;20049;-72
2022/12/01 04:16:26;;;;;;;113.10;35.20;;;6.40;99.90;;;;;;5033485;28;19921;-73
2022/12/01 04:18:54;;;;;;;110.10;31.63;;;6.40;99.90;;;;;;5034571;28;20050;-73
2022/12/01 04:21:21;;;;;;;113.65;35.85;;;6.40;99.90;;;;;;5034593;28;20061;-73
2022/12/01 04:24:01;;;;;;;114.43;34.63;;;6.30;99.90;;;;;;5016335;28;20048;-73
2022/12/01 04:26:31;;;;;;;148.77;34.72;;;6.40;99.90;;;;;;5034788;28;20046;-73
2022/12/01 04:29:06;;;;;;;117.82;30.73;;;6.30;99.90;;;;;;5034711;28;20468;-73
2022/12/01 04:31:34;;;;;;;127.05;35.75;;;6.30;99.90;;;;;;5033296;28;20046;-74
2022/12/01 04:34:01;;;;;;;120.85;34.85;;;6.30;99.90;;;;;;5033624;28;20046;-73
2022/12/01 04:36:31;;;;;;;104.00;33.15;;;6.30;99.90;;;;;;5033340;28;20057;-72
2022/12/01 04:38:59;;;;;;;118.88;34.17;;;6.30;99.90;;;;;;5033751;28;20064;-74
2022/12/01 04:41:27;;;;;;;113.47;32.58;;;6.20;99.90;;;;;;5014836;28;20464;-73
2022/12/01 04:43:54;;;;;;;134.48;34.80;;;8.50;99.90;;;;;;5013304;28;20062;-73
2022/12/01 04:46:23;;;;;;;113.97;32.88;;;6.20;99.90;;;;;;5014625;28;20053;-73
2022/12/01 04:48:51;;;;;;;109.68;33.30;;;6.20;99.90;;;;;;5014428;28;20050;-73
2022/12/01 04:51:21;;;;;;;113.80;31.65;;;6.70;99.90;;;;;;5013638;28;20125;-73
2022/12/01 04:53:49;;;;;;;101.75;31.85;;;6.60;99.90;;;;;;5014553;28;20046;-72
2022/12/01 04:56:17;;;;;;;129.30;29.25;;;6.10;99.90;;;;;;4995951;28;20058;-73
2022/12/01 04:58:45;;;;;;;98.07;28.88;;;7.60;99.90;;;;;;5014270;28;20042;-72
2022/12/01 05:01:16;;;;;;;105.18;27.52;;;7.80;99.90;;;;;;5014696;28;20464;-73
2022/12/01 05:03:47;;;;;;;111.82;27.58;;;6.00;99.90;;;;;;5013754;28;20049;-73
2022/12/01 05:06:18;;;;;;;108.68;28.83;;;5.80;99.90;;;;;;5014255;28;20053;-73
2022/12/01 05:08:47;;;;;;;84.22;26.95;;;5.70;99.90;;;;;;5014149;28;20052;-73
2022/12/01 05:11:16;;;;;;;118.25;27.35;;;5.60;99.90;;;;;;5013155;28;20058;-73
2022/12/01 05:13:45;;;;;;;111.70;30.52;;;5.80;99.90;;;;;;5014277;28;20049;-73
2022/12/01 05:16:17;;;;;;;96.13;30.58;;;5.40;99.90;;;;;;5013706;28;20046;-72
2022/12/01 05:21:48;;;;;;;106.55;30.58;;;5.40;99.90;;;;;;4985910;28;20096;-72
2022/12/01 05:24:16;;;;;;;133.93;33.03;;;6.30;99.90;;;;;;5016529;28;20041;-73
2022/12/01 05:26:44;;;;;;;134.10;32.85;;;5.40;99.90;;;;;;5017865;28;20066;-73
2022/12/01 05:29:12;;;;;;;107.68;33.55;;;5.40;99.90;;;;;;5017684;28;20061;-73
2022/12/01 05:31:40;;;;;;;124.55;35.45;;;5.40;99.90;;;;;;5016977;28;20388;-73
2022/12/01 05:34:08;;;;;;;129.15;32.10;;;5.90;99.90;;;;;;5017516;28;20080;-73
2022/12/01 05:36:35;;;;;;;;;;;5.50;99.90;;;;;;4999626;28;20053;-72
2022/12/01 05:39:03;;;;;;;94.22;26.48;;;5.50;99.90;;;;;;5017743;28;19929;-73
2022/12/01 05:41:31;;;;;;;107.97;29.85;;;5.50;99.90;;;;;;5000542;28;20037;-73
2022/12/01 05:43:58;;;;;;;106.65;29.77;;;6.10;99.90;;;;;;5016188;28;20484;-73
2022/12/01 05:46:26;;;;;;;110.78;30.17;;;5.40;99.90;;;;;;5017136;28;20049;-72
2022/12/01 05:48:54;;;;;;;113.10;30.48;;;5.30;99.90;;;;;;5000416;28;20508;-73
2022/12/01 05:51:21;;;;;;;109.95;29.65;;;5.30;99.90;;;;;;5015990;28;20051;-72
2022/12/01 05:53:49;;;;;;;105.85;30.05;;;5.20;99.90;;;;;;5017366;28;20061;-72
2022/12/01 05:56:16;;;;;;;86.93;26.88;;;5.10;99.90;;;;;;5015819;28;20057;-73
2022/12/01 05:58:44;;;;;;;101.03;27.17;;;5.10;99.90;;;;;;5017006;28;20049;-72
2022/12/01 06:01:11;;;;;;;134.10;28.23;;;4.90;99.90;;;;;;5016851;28;20042;-73
2022/12/01 06:03:39;;;;;;;149.35;30.85;;;4.80;99.90;;;;;;5016220;28;20046;-73
2022/12/01 06:06:06;;;;;;;115.45;29.48;;;4.80;99.90;;;;;;5017082;28;20388;-73
2022/12/01 06:08:34;;;;;;;145.93;33.25;;;4.70;99.90;;;;;;5016681;28;20469;-73
2022/12/01 06:11:01;;;;;;;95.60;29.80;;;5.40;99.90;;;;;;5015597;28;20050;-72
2022/12/01 06:13:29;;;;;;;108.25;29.13;;;4.50;99.90;;;;;;5016793;28;20050;-73
2022/12/01 06:16:02;;;;;;;125.78;29.40;;;5.00;99.90;;;;;;5015943;28;20373;-73
2022/12/01 06:18:34;;;;;;;124.82;28.02;;;4.50;99.90;;;;;;4999774;28;20060;-72
2022/12/01 06:21:04;;;;;;;104.68;28.73;;;4.40;99.90;;;;;;5016768;28;20042;-72
2022/12/01 06:23:32;;;;;;;118.50;30.00;;;4.40;99.90;;;;;;5015312;28;20046;-72
2022/12/01 06:25:59;;;;;;;99.18;29.02;;;4.40;99.90;;;;;;5016588;28;20492;-72
2022/12/01 06:28:27;;;;;;;107.18;28.30;;;4.30;99.90;;;;;;5016089;28;20042;-72
2022/12/01 06:30:54;;;;;;;101.45;26.67;;;4.30;99.90;;;;;;5015376;28;20053;-73
2022/12/01 06:33:30;;;;;;;129.40;28.42;;;5.40;99.90;;;;;;5016419;28;20045;-72
2022/12/01 06:36:04;;;;;;;119.78;29.50;;;4.20;99.90;;;;;;4998365;28;20057;-72
2022/12/01 06:38:33;;;;;;;103.10;27.88;;;4.10;99.90;;;;;;4999553;28;20061;-73
2022/12/01 06:41:01;;;;;;;117.28;29.35;;;4.10;99.90;;;;;;5029437;28;20369;-72
2022/12/01 06:43:29;;;;;;;110.90;29.65;;;4.10;99.90;;;;;;5034749;28;20045;-72
2022/12/01 06:45:57;;;;;;;114.38;30.55;;;5.30;99.90;;;;;;5035132;28;20060;-72
2022/12/01 06:48:29;;;;;;;105.43;30.02;;;4.00;99.90;;;;;;5035076;28;20049;-73
2022/12/01 06:50:58;;;;;;;98.82;29.50;;;4.00;99.90;;;;;;5034495;28;20041;-73
2022/12/01 06:53:27;;;;;;;121.95;31.67;;;4.40;99.90;;;;;;5035675;28;20056;-72
2022/12/01 06:56:03;;;;;;;140.10;30.90;;;4.00;99.90;;;;;;5035066;28;20053;-73
2022/12/01 06:58:31;;;;;;;132.35;28.75;;;3.90;99.90;;;;;;5035752;28;20049;-71
2022/12/01 07:00:59;;;;;;;;;;;3.90;99.90;;;;;;5036230;28;20041;-72
2022/12/01 07:03:26;;;;;;;110.85;27.60;;;3.80;99.90;;;;;;5034471;28;20359;-73
2022/12/01 07:05:58;;;;;;;110.50;29.83;;;3.80;99.90;;;;;;5035701;28;20056;-72
2022/12/01 07:08:27;;;;;;;130.10;28.25;;;3.70;99.90;;;;;;5035500;28;20045;-73
2022/12/01 07:10:56;;;;;;;108.00;28.83;;;3.70;99.90;;;;;;5033767;28;20478;-72
2022/12/01 07:13:24;;;;;;;107.35;29.38;;;3.70;99.90;;;;;;5035474;28;20045;-72
2022/12/01 07:16:02;;;;;;;134.70;29.48;;;3.60;99.90;;;;;;5034345;28;20045;-72
2022/12/01 07:18:30;;;;;;;101.88;28.50;;;3.60;99.90;;;;;;5035767;28;20053;-73
2022/12/01 07:21:06;;;;;;;;;;;3.60;99.90;;;;;;5034989;28;20049;-72
2022/12/01 07:23:34;;;;;;;104.30;28.35;;;3.50;99.90;;;;;;5034097;28;19921;-72
2022/12/01 07:26:05;;;;;;;119.18;29.50;;;3.50;99.90;;;;;;5035100;28;20380;-73
2022/12/01 07:28:33;;;;;;;116.90;30.50;;;3.50;99.90;;;;;;5035469;28;20050;-73
2022/12/01 07:31:20;;;;;;;144.45;33.00;;;3.50;99.90;;;;;;5016921;28;20049;-72
2022/12/01 07:33:48;;;;;;;;;;;3.40;99.90;;;;;;5035401;28;20060;-73
2022/12/01 07:36:15;;;;;;;106.07;31.27;;;3.50;99.90;;;;;;5033943;28;19932;-72
2022/12/01 07:38:43;;;;;;;121.85;34.55;;;3.50;99.90;;;;;;5034050;28;20049;-72
2022/12/01 07:41:13;;;;;;;109.40;32.42;;;5.60;99.90;;;;;;5016519;28;20369;-73
2022/12/01 07:43:41;;;;;;;90.97;33.83;;;4.20;99.90;;;;;;5014248;28;20053;-73
2022/12/01 07:46:19;;;;;;;113.30;37.95;;;3.60;99.90;;;;;;5015001;28;20046;-72
2022/12/01 07:48:51;;;;;;;104.63;35.67;;;3.60;99.90;;;;;;5015319;28;20050;-72
2022/12/01 07:51:19;;;;;;;121.15;36.75;;;3.70;99.90;;;;;;5013787;28;20073;-72
2022/12/01 07:53:48;;;;;;;117.50;35.00;;;3.70;99.90;;;;;;5014977;28;20053;-73
2022/12/01 07:56:17;;;;;;;94.78;31.83;;;3.70;99.90;;;;;;5013828;28;20053;-74
2022/12/01 07:58:44;;;;;;;101.88;32.17;;;3.80;99.90;;;;;;5015881;28;20480;-74
2022/12/01 08:01:16;;;;;;;97.38;31.95;;;3.80;99.90;;;;;;5000762;28;20053;-74
2022/12/01 08:03:44;;;;;;;84.75;29.05;;;3.90;99.90;;;;;;5033766;28;20045;-73
2022/12/01 08:06:11;;;;;;;87.25;28.92;;;4.40;99.90;;;;;;5034598;28;20048;-74
2022/12/01 08:08:40;;;;;;;75.05;28.13;;;3.90;99.90;;;;;;5034574;28;20056;-74
2022/12/01 08:11:30;;;;;;;86.97;28.58;;;3.90;99.90;;;;;;5033535;28;20057;-74
2022/12/01 08:13:58;;;;;;;85.90;28.33;;;3.90;99.90;;;;;;5034751;28;20056;-74
2022/12/01 08:16:25;;;;;;;95.13;29.30;;;4.30;99.90;;;;;;5033314;28;20053;-74
2022/12/01 08:18:53;;;;;;;111.32;31.25;;;3.90;99.90;;;;;;5034318;28;20045;-74
2022/12/01 08:21:22;;;;;;;93.00;30.60;;;3.90;99.90;;;;;;5017622;28;20053;-74
2022/12/01 08:23:54;;;;;;;106.55;29.08;;;4.00;99.90;;;;;;5032795;28;20053;-73
2022/12/01 08:26:23;;;;;;;97.03;30.17;;;5.40;99.90;;;;;;5016739;28;20050;-74
2022/12/01 08:28:50;;;;;;;86.53;31.48;;;4.60;99.90;;;;;;5033971;28;20380;-74
2022/12/01 08:31:22;;;;;;;113.22;31.65;;;4.20;99.90;;;;;;5032982;28;20072;-73
2022/12/01 08:33:50;;;;;;;98.68;31.52;;;4.30;99.90;;;;;;5033969;28;20049;-74
2022/12/01 08:36:19;;;;;;;86.72;30.50;;;2.90;99.90;;;;;;5032967;28;20064;-73
2022/12/01 08:38:53;;;;;;;119.65;32.72;;;4.40;99.90;;;;;;5000002;28;20476;-73
2022/12/01 08:41:21;;;;;;;101.90;32.42;;;6.90;99.90;;;;;;5033762;28;20046;-74
2022/12/01 08:43:48;;;;;;;;;;;4.60;99.90;;;;;;4999849;28;20041;-74
2022/12/01 08:46:27;;;;;;;105.82;33.50;;;4.60;99.90;;;;;;5034147;28;19921;-74
2022/12/01 08:48:56;;;;;;;111.00;33.97;;;5.80;99.90;;;;;;5016688;28;20045;-73
2022/12/01 08:51:24;;;;;;;108.65;34.25;;;4.90;99.90;;;;;;5035490;28;20048;-74
2022/12/01 08:53:54;;;;;;;95.20;32.08;;;5.00;99.90;;;;;;5037295;28;20064;-74
2022/12/01 08:56:34;;;;;;;97.20;32.47;;;5.00;99.90;;;;;;5019182;28;20502;-74
2022/12/01 08:59:03;;;;;;;99.78;33.80;;;7.40;99.90;;;;;;5030165;28;20057;-73
2022/12/01 09:01:31;;;;;;;;;;;6.40;99.90;;;;;;5012895;28;20341;-73
2022/12/01 09:04:04;;;;;;;104.47;33.58;;;5.20;99.90;;;;;;5036102;28;19928;-74
2022/12/01 09:06:41;;;;;;;99.13;34.35;;;5.20;99.90;;;;;;5037583;28;20041;-73
2022/12/01 09:09:11;;;;;;;96.28;32.58;;;5.20;99.90;;;;;;5037953;28;20049;-74
2022/12/01 09:11:40;;;;;;;108.60;34.70;;;5.90;99.90;;;;;;5036444;28;20046;-74
2022/12/01 09:14:08;;;;;;;104.43;34.85;;;5.20;99.90;;;;;;5038091;28;20372;-74
2022/12/01 09:16:36;;;;;;;106.88;34.72;;;5.20;99.90;;;;;;5035988;28;20380;-73
2022/12/01 09:19:03;;;;;;;128.52;37.63;;;5.10;99.90;;;;;;5037364;28;20041;-73
2022/12/01 09:21:33;;;;;;;120.60;34.53;;;5.40;99.90;;;;;;5037035;28;20050;-74
2022/12/01 09:24:02;;;;;;;109.05;35.83;;;5.10;99.90;;;;;;5036092;28;20129;-74
2022/12/01 09:26:30;;;;;;;106.93;34.78;;;5.00;99.90;;;;;;5037502;28;20049;-72
2022/12/01 09:29:00;;;;;;;;;;;5.00;99.90;;;;;;5037769;28;20053;-73
2022/12/01 09:31:28;;;;;;;113.40;35.42;;;4.90;99.90;;;;;;5036493;28;19936;-74
2022/12/01 09:34:01;;;;;;;111.30;35.67;;;5.00;99.90;;;;;;5019408;28;20045;-81
2022/12/01 09:36:30;;;;;;;133.73;39.22;;;7.00;99.90;;;;;;5017447;28;20480;-80
2022/12/01 09:39:00;;;;;;;134.35;39.92;;;7.00;99.90;;;;;;5012041;28;20468;-82
2022/12/01 09:41:47;;;;;;;133.43;41.60;;;4.90;99.90;;;;;;5003435;28;20056;-80
2022/12/01 09:44:44;;;;;;;140.13;41.22;;;5.00;99.90;;;;;;5036399;28;20045;-78
2022/12/01 09:47:28;;;;;;;130.93;40.03;;;4.90;99.90;;;;;;5012826;28;20045;-74
2022/12/01 09:50:20;;;;;;;144.25;40.75;;;6.30;99.90;;;;;;5035266;28;20048;-75
2022/12/01 09:53:02;;;;;;;140.60;41.00;;;5.00;99.90;;;;;;5019890;28;20072;-75
2022/12/01 09:55:31;;;;;;;147.27;44.10;;;5.00;99.90;;;;;;5004039;28;20076;-75
2022/12/01 09:58:06;;;;;;;133.00;42.08;;;7.20;99.90;;;;;;5018567;28;20046;-77
2022/12/01 10:00:45;;;;;;;142.77;42.90;;;6.10;99.90;;;;;;5019928;28;20041;-76
2022/12/01 10:03:45;;;;;;;149.27;42.38;;;7.10;99.90;;;;;;5014603;28;20392;-79
2022/12/01 10:06:18;;;;;;;144.75;43.78;;;5.30;99.90;;;;;;5036495;28;20049;-73
2022/12/01 10:09:04;;;;;;;130.00;41.53;;;5.30;99.90;;;;;;5036322;28;20053;-74
2022/12/01 10:11:41;;;;;;;136.43;41.03;;;5.40;99.90;;;;;;5035545;28;20061;-77
2022/12/01 10:14:16;;;;;;;136.30;41.60;;;6.50;99.90;;;;;;5018998;28;20050;-75
2022/12/01 10:17:13;;;;;;;130.07;41.05;;;7.50;99.90;;;;;;5017922;28;20612;-75
2022/12/01 10:20:03;;;;;;;130.93;40.78;;;5.50;99.90;;;;;;5019534;28;20038;-75
2022/12/01 10:23:08;;;;;;;125.72;38.90;;;5.60;99.90;;;;;;5019101;28;20372;-77
2022/12/01 10:25:49;;;;;;;108.97;37.22;;;5.60;99.90;;;;;;5036640;28;20472;-74
2022/12/01 10:28:22;;;;;;;104.57;37.28;;;6.00;99.90;;;;;;5019830;28;20049;-76
2022/12/01 10:30:51;;;;;;;112.85;38.45;;;7.70;99.90;;;;;;5035807;28;20050;-75
2022/12/01 10:33:48;;;;;;;103.28;37.63;;;6.00;99.90;;;;;;5036617;28;20057;-74
2022/12/01 10:36:15;;;;;;;119.15;38.78;;;8.00;99.90;;;;;;5035193;28;20447;-77
2022/12/01 10:38:43;;;;;;;116.53;40.38;;;6.70;99.90;;;;;;5018892;28;20049;-75
2022/12/01 10:41:14;;;;;;;96.78;36.35;;;7.70;99.90;;;;;;5052596;28;20045;-75
2022/12/01 10:43:50;;;;;;;88.65;34.40;;;6.60;99.90;;;;;;5055289;28;20045;-75
2022/12/01 10:46:21;;;;;;;83.13;33.42;;;6.60;99.90;;;;;;5056003;28;20498;-75
2022/12/01 10:48:55;;;;;;;89.00;32.63;;;8.60;99.90;;;;;;5056182;28;20059;-75
2022/12/01 10:51:24;;;;;;;76.30;29.95;;;8.60;99.90;;;;;;5054027;28;20498;-75
2022/12/01 10:54:11;;;;;;;75.78;30.67;;;6.40;99.90;;;;;;5055014;28;20090;-77
2022/12/01 10:56:48;;;;;;;70.30;28.77;;;6.30;99.90;;;;;;5054813;28;20372;-75
2022/12/01 10:59:37;;;;;;;71.20;27.45;;;6.40;99.90;;;;;;5055577;28;20045;-74
2022/12/01 11:02:15;;;;;;;69.60;27.63;;;6.40;99.90;;;;;;5055936;28;20064;-75
2022/12/01 11:04:50;;;;;;;60.95;26.52;;;6.50;99.90;;;;;;5054785;28;20330;-75
2022/12/01 11:07:25;;;;;;;57.58;25.73;;;8.40;99.90;;;;;;5056050;28;20053;-75
2022/12/01 11:10:02;;;;;;;56.88;23.63;;;6.50;99.90;;;;;;5054174;28;20045;-75
2022/12/01 11:12:30;;;;;;;51.38;22.30;;;6.60;99.90;;;;;;5055777;28;20060;-76
2022/12/01 11:14:58;;;;;;;49.53;21.92;;;6.60;99.90;;;;;;5055308;28;20053;-75
2022/12/01 11:17:37;;;;;;;49.40;22.10;;;6.60;99.90;;;;;;5053736;28;20364;-77
2022/12/01 11:20:29;;;;;;;42.08;20.48;;;8.30;99.90;;;;;;5037631;28;20472;-75
2022/12/01 11:23:15;;;;;;;49.35;22.25;;;6.70;99.90;;;;;;5054114;28;20052;-76
2022/12/01 11:25:55;;;;;;;50.30;22.55;;;6.80;99.90;;;;;;5054766;28;20041;-77
2022/12/01 11:28:23;;;;;;;51.17;22.90;;;7.20;99.90;;;;;;5055067;28;20045;-75
2022/12/01 11:30:59;;;;;;;49.42;21.92;;;9.20;99.90;;;;;;5053126;28;20049;-75
2022/12/01 11:33:28;;;;;;;44.30;20.70;;;6.90;99.90;;;;;;5054700;28;20052;-75
2022/12/01 11:35:56;;;;;;;40.70;19.33;;;9.10;99.90;;;;;;5037473;28;20055;-74
2022/12/01 11:38:31;;;;;;;40.25;18.52;;;7.00;99.90;;;;;;5054655;28;20051;-76
2022/12/01 11:40:59;;;;;;;41.38;19.65;;;7.10;99.90;;;;;;5037777;28;20482;-75
2022/12/01 11:43:35;;;;;;;39.60;20.52;;;8.40;99.90;;;;;;5033792;28;20045;-77
2022/12/01 11:46:06;;;;;;;41.45;20.88;;;8.90;99.90;;;;;;5017544;28;20400;-73
2022/12/01 11:48:35;;;;;;;40.17;19.17;;;7.20;99.90;;;;;;5017270;28;20038;-75
2022/12/01 11:51:36;;;;;;;44.45;21.17;;;7.10;99.90;;;;;;5016910;28;20049;-76
2022/12/01 11:54:20;;;;;;;44.88;21.13;;;7.20;99.90;;;;;;5034617;28;20053;-78
2022/12/01 11:56:53;;;;;;;46.00;20.75;;;7.30;99.90;;;;;;5033667;28;20048;-75
2022/12/01 11:59:41;;;;;;;37.97;19.42;;;7.40;99.90;;;;;;5017095;28;20124;-72
2022/12/01 12:02:34;;;;;;;39.38;18.35;;;7.50;99.90;;;;;;5034438;28;20057;-77
2022/12/01 12:05:13;;;;;;;33.45;17.25;;;7.60;99.90;;;;;;5034453;28;20037;-76
2022/12/01 12:07:52;;;;;;;38.55;18.52;;;7.70;99.90;;;;;;5034177;28;20045;-76
2022/12/01 12:11:00;;;;;;;29.02;15.68;;;7.70;99.90;;;;;;5016533;28;20049;-76
2022/12/01 12:14:41;;;;;;;32.45;16.10;;;7.70;99.90;;;;;;5016123;28;20041;-83
2022/12/01 12:17:46;;;;;;;30.15;14.52;;;7.90;99.90;;;;;;5012107;28;20049;-83
2022/12/01 12:20:38;;;;;;;27.77;14.38;;;7.80;99.90;;;;;;4998181;28;20381;-81
2022/12/01 12:23:16;;;;;;;26.80;14.70;;;10.10;99.90;;;;;;4986455;28;20046;-81
2022/12/01 12:26:18;;;;;;;26.15;13.50;;;7.60;99.90;;;;;;5016348;28;20042;-74
2022/12/01 12:28:51;;;;;;;27.30;14.13;;;7.70;99.90;;;;;;5018532;28;20046;-75
2022/12/01 12:31:42;;;;;;;28.20;13.88;;;7.70;99.90;;;;;;5032811;28;20472;-74
2022/12/01 12:34:21;;;;;;;29.88;14.02;;;7.70;99.90;;;;;;5030254;28;20480;-74
2022/12/01 12:36:54;;;;;;;29.33;15.10;;;8.90;99.90;;;;;;5036970;28;20499;-74
2022/12/01 12:39:39;;;;;;;26.30;14.82;;;7.90;99.90;;;;;;5037621;28;20049;-73
2022/12/01 12:42:39;;;;;;;29.45;14.90;;;7.90;99.90;;;;;;5037796;28;20045;-78
2022/12/01 12:45:30;;;;;;;29.50;14.63;;;7.90;99.90;;;;;;5019918;28;20041;-79
2022/12/01 12:48:33;;;;;;;29.90;14.45;;;8.10;99.90;;;;;;4986844;28;20046;-79
2022/12/01 12:51:30;;;;;;;27.08;12.60;;;9.40;99.90;;;;;;5022535;28;20044;-79
2022/12/01 12:54:25;;;;;;;26.67;12.27;;;8.20;99.90;;;;;;4987807;28;20049;-78
2022/12/01 12:57:07;;;;;;;16.48;8.80;;;8.40;99.90;;;;;;5036752;28;20049;-79
2022/12/01 12:59:50;;;;;;;15.88;7.80;;;9.80;99.90;;;;;;5020609;28;20044;-79
2022/12/01 13:02:52;;;;;;;15.05;6.80;;;8.50;99.90;;;;;;5037314;28;20049;-79
2022/12/01 13:05:32;;;;;;;13.60;7.57;;;8.50;99.90;;;;;;5020737;28;20064;-79
2022/12/01 13:08:14;;;;;;;14.63;7.40;;;8.70;99.90;;;;;;5020134;28;20049;-80
2022/12/01 13:10:45;;;;;;;13.27;6.45;;;8.80;99.90;;;;;;5036376;28;20049;-79
2022/12/01 13:13:39;;;;;;;12.93;6.18;;;9.20;99.90;;;;;;5037450;28;20049;-79
2022/12/01 13:16:16;;;;;;;13.90;6.95;;;9.20;99.90;;;;;;5018693;28;20049;-79
2022/12/01 13:19:11;;;;;;;17.55;7.88;;;9.00;99.90;;;;;;5037442;28;20376;-79